Weather observations for the past three days for
Iowa Falls Municipal Airport
Imperial (Metric)
Date Time (cdt) Wind (mph) Vis. (mi.) Weather Sky Cond. Temperature (ºF) Relative Humidity Wind Chill (°F) Heat Index (°F) Pressure Precipitation (in)
Air Dwpt 6 hour altimeter (in) sea level (mb) 1 hr 3 hr 6 hr
Max. Min.
10 02:55 W 6 10.00 Fair CLR 39.4 23 52% 36 30.07 0.0
10 02:35 NW 5 10.00 Fair CLR 38.7 21 49% 36 30.06 0.0
10 02:15 NW 6 10.00 Fair CLR 37.9 20.1 49% 34 30.05 0.0
10 01:55 NW 6 10.00 Fair CLR 39.9 20.8 46% 36 30.05 0.0
10 01:35 NW 6 10.00 Fair CLR 40.1 20.3 45% 37 30.05 0.0
10 01:15 NW 8 10.00 Fair CLR 40.1 21 46% 35 30.04 0.0
10 00:55 NW 7 10.00 Fair CLR 40.5 20.3 64.2 40.5 44% 36 30.03 0.0
10 00:35 NW 8 10.00 Fair CLR 42.1 21.4 44% 38 30.02 0.0
10 00:15 NW 9 10.00 Fair CLR 43.2 22.5 44% 38 30.02 0.0
09 23:55 NW 8 10.00 Fair CLR 44.1 22.5 42% 40 30.01 0.0
09 23:35 NW 6 10.00 Fair CLR 44.8 22.1 41% 42 30.01 0.0
09 23:15 NW 7 10.00 Fair CLR 45.5 19.4 35% 42 30 0.0
09 22:55 NW 8 10.00 Fair CLR 46 21.6 38% 42 29.99 0.0
09 22:35 NW 9 10.00 Fair CLR 50.9 19.4 29% 29.99 0.0
09 22:15 NW 8 10.00 Fair CLR 51.1 19.2 28% 29.97 0.0
09 21:55 NW 10 10.00 Fair CLR 52.9 19.2 27% 29.96 0.0
09 21:35 NW 10 10.00 Fair CLR 53.6 19.2 26% 29.95 0.0
09 21:15 NW 9 10.00 Fair CLR 54.9 18.7 24% 29.94 0.0
09 20:55 NW 12 10.00 Fair CLR 56.5 19 23% 29.93 0.0
09 20:35 NW 10 10.00 Fair CLR 58.1 19.6 22% 29.91 0.0
09 20:15 NW 14 10.00 Fair CLR 59.9 19.4 21% 29.9 0.0
09 19:55 NW 16 10.00 Fair CLR 61.7 19.2 19% 29.89 0.0
09 19:35 NW 20 10.00 Fair CLR 62.8 19 18% 29.88 0.0
09 19:15 NW 15 G 23 10.00 Fair CLR 63.9 20.8 19% 29.87 0.0
09 18:55 NW 22 10.00 Fair and Breezy CLR 64.4 20.5 70.2 63.1 18% 29.87 0.0
09 18:35 NW 21 G 29 10.00 Fair and Breezy CLR 65.7 21 18% 29.86 0.0
09 18:15 NW 21 G 26 10.00 Fair and Breezy CLR 67.3 22.8 18% 29.85 0.0
09 17:55 NW 21 G 26 10.00 Fair and Breezy CLR 68.4 23.5 18% 29.84 0.0
09 17:35 NW 18 G 26 10.00 Fair CLR 68.7 24.6 19% 29.84 0.0
09 17:15 NW 25 G 29 10.00 Fair and Breezy CLR 68.7 25 19% 29.82 0.0
09 16:55 NW 20 G 29 10.00 Fair CLR 68.7 25.9 20% 29.82 0.0
09 16:35 NW 24 G 31 10.00 Fair and Breezy CLR 68.9 25.9 20% 29.82 0.0
09 16:15 NW 16 G 28 10.00 Fair CLR 69.4 27.5 21% 29.81 0.0
09 15:55 N 21 G 28 10.00 Fair and Breezy CLR 69.8 28.6 21% 29.81 0.0
09 15:35 NW 22 G 29 10.00 Fair and Breezy CLR 70.2 30.2 23% 29.81 0.0
09 15:15 NW 12 G 31 10.00 Fair CLR 69.4 29.7 23% 29.8 0.0
09 14:55 NW 15 G 29 10.00 Fair CLR 69.4 31.5 24% 29.8 0.0
09 14:35 NW 20 G 28 10.00 Fair CLR 67.8 32.7 27% 29.8 0.0
09 14:15 NW 17 G 29 10.00 Partly Cloudy SCT090 68.5 32.9 27% 29.79 0.0
09 13:55 NW 20 G 25 10.00 Partly Cloudy SCT100 67.8 35.8 31% 29.79 0.0
09 13:35 NW 16 G 29 10.00 Mostly Cloudy BKN100 67.6 38.3 34% 29.79 0.0
09 13:15 NW 17 G 25 10.00 Overcast OVC100 65.3 42.4 44% 29.78 0.0
09 12:55 NW 15 10.00 Overcast SCT070 SCT080 OVC100 62.8 41.4 65.1 51.6 46% 29.78 0.0
09 12:35 NW 22 G 25 10.00 Mostly Cloudy and Breezy SCT070 BKN080 BKN110 61.9 42.1 48% 29.79 0.0
09 12:15 NW 23 10.00 Partly Cloudy and Breezy SCT090 SCT120 64.8 42.1 44% 29.79 0.0
09 11:55 NW 17 10.00 Mostly Cloudy BKN090 63.5 42.6 47% 29.79 0.0
09 11:35 NW 14 G 23 10.00 Mostly Cloudy BKN090 64 40.8 43% 29.77 0.0
09 11:15 NW 22 G 28 10.00 Mostly Cloudy and Breezy BKN090 BKN110 64.6 40.3 41% 29.77 0.0
09 10:55 NW 17 10.00 Mostly Cloudy BKN090 BKN110 63.7 39 40% 29.75 0.0
09 10:35 NW 10 10.00 Mostly Cloudy BKN100 63.5 39.2 41% 29.75 0.0
09 10:15 NW 15 10.00 Mostly Cloudy BKN100 BKN120 62.2 38.1 41% 29.75 0.0
09 09:55 NW 16 10.00 Mostly Cloudy BKN110 62.4 36.3 38% 29.77 0.0
09 09:35 NW 12 10.00 Mostly Cloudy BKN110 61.9 35.2 37% 29.74 0.0
09 09:15 NW 14 10.00 Mostly Cloudy BKN120 61 32.9 35% 29.75 0.0
09 08:55 NW 20 G 23 10.00 Partly Cloudy SCT120 61.3 32 33% 29.75 0.0
09 08:35 NW 20 G 23 10.00 Partly Cloudy SCT120 60.8 32.2 34% 29.75 0.0
09 08:15 W 15 G 22 10.00 Fair CLR 61 32 34% 29.74 0.0
09 07:55 W 15 G 20 10.00 Fair CLR 57.9 32.5 38% 29.74 0.0
09 07:35 W 13 10.00 Fair CLR 55.8 32.5 41% 29.7 0.0
09 07:15 SW 10 10.00 Fair CLR 52.9 33.1 47% 29.69 0.0
09 06:55 SW 8 10.00 Fair CLR 51.3 32.7 52.7 43.2 49% 29.68 0.0
09 06:35 SW 8 10.00 Fair CLR 47.7 32.4 56% 44 29.68 0.0
09 06:15 SW 10 10.00 Fair CLR 45.7 31.8 59% 41 29.68 0.0
09 05:55 SW 6 10.00 Fair CLR 43.2 31.5 63% 40 29.68 0.0
09 05:35 SW 7 10.00 Fair CLR 43.5 31.6 63% 40 29.68 0.0
09 05:15 SW 9 10.00 Fair CLR 44.8 31.1 59% 40 29.68 0.0
09 04:55 SW 10 10.00 Fair CLR 45.7 31.3 57% 41 29.68 0.0
09 04:35 W 8 10.00 Fair CLR 46.8 31.3 55% 43 29.69 0.0
09 04:15 SW 9 10.00 Fair CLR 45 31.6 60% 41 29.68 0.0
09 03:55 W 7 10.00 Fair CLR 45.5 32 59% 42 29.68 0.0
09 03:35 W 7 10.00 Fair CLR 46.4 32 57% 43 29.69 0.0
09 03:15 W 7 10.00 Fair CLR 47.3 32 55% 44 29.69 0.0
09 02:55 W 6 10.00 Fair CLR 49.6 32 51% 48 29.68 0.0
09 02:35 W 3 10.00 Fair CLR 50.4 32.2 50% 29.68 0.0
09 02:15 W 5 10.00 Fair CLR 50 32.2 51% 49 29.68 0.0
09 01:55 NW 7 10.00 Fair CLR 48.7 32.2 53% 46 29.69 0.0
09 01:35 NW 7 10.00 Fair CLR 50 32.5 51% 48 29.69 0.0
09 01:15 NW 7 10.00 Partly Cloudy SCT110 51.3 34 52% 29.69 0.0
09 00:55 NW 6 10.00 Mostly Cloudy BKN110 52.9 34.9 73 52.9 51% 29.69 0.0
09 00:35 W 6 10.00 Mostly Cloudy BKN120 53.8 33.6 47% 29.69 0.0
09 00:15 NW 6 10.00 Partly Cloudy SCT110 54.3 34 46% 29.69 0.0
08 23:55 NW 5 10.00 Partly Cloudy SCT110 56.5 32 40% 29.69 0.0
08 23:35 NW 7 10.00 Partly Cloudy SCT120 58.1 34 40% 29.69 0.0
08 23:15 W 6 10.00 Mostly Cloudy BKN120 60.3 32.5 35% 29.68 0.0
08 22:55 W 9 10.00 Partly Cloudy SCT120 59.7 32.5 36% 29.68 0.0
08 22:35 W 10 10.00 Fair CLR 61 32.5 34% 29.67 0.0
08 22:15 W 7 10.00 Fair CLR 61 33.3 35% 29.66 0.0
08 21:55 W 8 10.00 Partly Cloudy SCT110 60.8 33.3 36% 29.65 0.0
08 21:35 SW 8 10.00 Partly Cloudy SCT120 64.4 33.6 32% 29.64 0.0
08 21:15 SW 10 10.00 Partly Cloudy SCT110 66.7 32.7 28% 29.64 0.0
08 20:55 SW 12 10.00 Overcast OVC110 69.4 32 25% 29.64 0.0
08 20:35 SW 10 10.00 Mostly Cloudy BKN110 68.4 32 26% 29.63 0.0
08 20:15 SW 15 10.00 Mostly Cloudy BKN110 69.8 31.6 24% 29.63 0.0
08 19:55 W 12 10.00 Overcast OVC110 71.8 30.4 22% 29.64 0.0
08 19:35 W 10 10.00 Overcast OVC110 72.7 30.2 21% 29.63 0.0
08 19:15 W 9 G 23 10.00 Overcast SCT095 OVC110 72.1 28 19% 29.63 0.0
08 18:55 W 12 G 16 10.00 Mostly Cloudy BKN120 72.9 28.2 76.1 70.5 19% 29.64 0.0
08 18:35 SW 10 10.00 Partly Cloudy SCT110 73 27.7 19% 29.64 0.0
08 18:15 W 14 10.00 Partly Cloudy SCT120 74.3 26.1 17% 29.65 0.0
08 17:55 W 15 G 22 10.00 Partly Cloudy SCT120 75.2 26.4 16% 76 29.65 0.0
08 17:35 NW 15 G 24 10.00 Partly Cloudy SCT120 73.6 25.9 17% 29.65 0.0
08 17:15 W 13 G 18 10.00 Mostly Cloudy BKN120 75.6 25.3 15% 76 29.65 0.0
08 16:55 W 13 G 22 10.00 Partly Cloudy SCT120 73.2 24.4 16% 29.66 0.0
08 16:35 W 13 G 28 10.00 Partly Cloudy SCT120 75 27 17% 76 29.67 0.0
08 16:15 W 14 G 18 10.00 Mostly Cloudy BKN120 75 24.3 15% 75 29.68 0.0
08 15:55 W 10 G 22 10.00 Fair CLR 74.8 25.9 16% 29.69 0.0
08 15:35 W 5 G 17 10.00 Fair CLR 74.3 25.3 16% 29.7 0.0
08 15:15 SW 14 G 20 10.00 Partly Cloudy SCT110 74.5 27 17% 29.71 0.0
08 14:55 W 6 G 23 10.00 Partly Cloudy SCT110 73.6 23.5 15% 29.72 0.0
08 14:35 SW 3 G 23 10.00 Fair CLR 73.2 25.5 17% 29.73 0.0
08 14:15 W 5 G 16 10.00 Fair CLR 72.3 25 17% 29.74 0.0
08 13:55 W 9 G 24 10.00 Fair CLR 72.7 26.1 18% 29.74 0.0
08 13:35 W 5 G 22 10.00 Fair CLR 70.9 25.2 18% 29.75 0.0
08 13:15 W 15 G 20 10.00 Partly Cloudy SCT100 71.6 25.5 18% 29.76 0.0
08 12:55 W 14 G 20 10.00 Fair CLR 70.7 25.5 70.7 40.3 18% 29.76 0.0
08 12:35 W 8 G 17 10.00 Fair CLR 69.8 23.2 17% 29.77 0.0
08 12:15 W 17 G 21 10.00 Fair CLR 69.6 24.6 18% 29.78 0.0
08 11:55 W 7 10.00 Fair CLR 69.3 23.9 18% 29.79 0.0
08 11:35 Calm 10.00 Fair CLR 68.5 25.2 19% 29.79 0.0
08 11:15 W 10 G 17 10.00 Fair CLR 68.4 27.5 22% 29.8 0.0
08 10:55 SW 8 10.00 Fair CLR 67.6 27.3 22% 29.8 0.0
08 10:35 W 8 10.00 Fair CLR 67.1 31.5 27% 29.8 0.0
08 10:15 SW 7 10.00 Fair CLR 65.5 30.2 27% 29.81 0.0
08 09:55 SW 6 10.00 Fair CLR 63.9 33.6 32% 29.82 0.0
08 09:35 S 7 10.00 Fair CLR 61.9 33.8 35% 29.82 0.0
08 09:15 S 7 10.00 Fair CLR 59.2 32.7 37% 29.82 0.0
08 08:55 S 6 10.00 Fair CLR 57 32.2 39% 29.83 0.0
08 08:35 SE 8 10.00 Fair CLR 54.9 30.2 39% 29.83 0.0
08 08:15 SE 7 10.00 Fair CLR 53.2 30.9 43% 29.83 0.0
08 07:55 SE 3 10.00 Fair CLR 50.4 29.3 44% 29.83 0.0
08 07:35 Calm 10.00 Fair CLR 46 28.8 51% 29.83 0.0
08 07:15 Calm 10.00 Fair CLR 41.9 31.3 66% 29.82 0.0
08 06:55 Calm 10.00 Fair CLR 40.3 27.7 44.8 38.7 61% 29.82 0.0
08 06:35 Calm 10.00 Fair CLR 39.4 29.7 68% 29.83 0.0
08 06:15 Calm 10.00 Fair CLR 39.4 27.5 63% 29.82 0.0
08 05:55 Calm 10.00 Fair CLR 40.3 27.9 61% 29.82 0.0
08 05:35 Calm 10.00 Fair CLR 38.7 28 66% 29.82 0.0
08 05:15 Calm 10.00 Fair CLR 40.8 27.7 60% 29.82 0.0
08 04:55 Calm 10.00 Fair CLR 39.6 27.3 62% 29.82 0.0
08 04:35 Calm 10.00 Fair CLR 40.1 25.2 55% 29.82 0.0
08 04:15 Calm 10.00 Fair CLR 43 23.5 46% 29.82 0.0
08 03:55 SE 7 10.00 Fair CLR 42.3 24.6 50% 38 29.82 0.0
08 03:35 SE 3 10.00 Fair CLR 43.9 24.6 47% 29.82 0.0
08 03:15 Calm 10.00 Fair CLR 43.9 24.6 47% 29.84 0.0
08 02:55 Calm 10.00 Fair CLR 42.8 24.4 48% 29.84 0.0
08 02:35 Calm 10.00 Fair CLR 43.5 24.3 47% 29.84 0.0
08 02:15 Calm 10.00 Fair CLR 41.2 24.6 52% 29.84 0.0
08 01:55 Calm 10.00 Fair CLR 43.2 24.1 47% 29.84 0.0
08 01:35 Calm 10.00 Fair CLR 44.1 25.2 47% 29.85 0.0
08 01:15 SE 5 10.00 Fair CLR 43.7 26.1 50% 42 29.85 0.0
08 00:55 E 7 10.00 Fair CLR 44.6 25.3 65.3 44.6 47% 41 29.85 0.0
08 00:35 SE 6 10.00 Fair CLR 46 24.8 43% 44 29.86 0.0
08 00:15 E 6 10.00 Fair CLR 46.4 25.7 44% 44 29.86 0.0
07 23:55 SE 6 10.00 Fair CLR 46.9 24.8 42% 45 29.86 0.0
07 23:35 E 3 10.00 Fair CLR 48.4 23.2 37% 29.86 0.0
07 23:15 NE 3 10.00 Fair CLR 50.7 22.1 33% 29.86 0.0
07 22:55 E 3 10.00 Fair CLR 51.3 22.6 33% 29.86 0.0
07 22:35 NE 3 10.00 Fair CLR 51.6 22.1 31% 29.86 0.0
07 22:15 NE 3 10.00 Fair CLR 53.2 23 31% 29.86 0.0
07 21:55 Calm 10.00 Fair CLR 52.9 21.9 30% 29.86 0.0
07 21:35 N 5 10.00 Fair CLR 54.5 22.5 29% 29.85 0.0
07 21:15 Calm 10.00 Fair CLR 55.8 22.1 27% 29.84 0.0
07 20:55 N 5 10.00 Fair CLR 58.3 20.8 23% 29.83 0.0
07 20:35 N 5 10.00 Fair CLR 58.8 21.4 23% 29.82 0.0
07 20:15 N 8 10.00 Fair CLR 58.5 22.8 25% 29.81 0.0
07 19:55 N 8 10.00 Fair CLR 61.9 21.6 21% 29.81 0.0
07 19:35 NW 7 10.00 Fair CLR 63.5 21.7 20% 29.81 0.0
07 19:15 N 10 10.00 Fair CLR 64.8 20.5 18% 29.8 0.0
07 18:55 NW 10 10.00 Fair CLR 65.3 21 67.5 61.9 18% 29.81 0.0
07 18:35 W 9 10.00 Fair CLR 66.2 21.2 18% 29.8 0.0
07 18:15 NW 14 10.00 Fair CLR 66.4 22.1 18% 29.8 0.0
07 17:55 NW 7 10.00 Fair CLR 66.2 23 19% 29.81 0.0
07 17:35 NW 12 G 16 10.00 Fair CLR 66.4 21.4 18% 29.81 0.0
07 17:15 NW 9 G 17 10.00 Fair CLR 66.6 22.1 18% 29.81 0.0
07 16:55 NW 9 G 17 10.00 Fair CLR 66.9 21.9 18% 29.81 0.0
07 16:35 W 10 10.00 Fair CLR 66.2 23.4 20% 29.82 0.0
07 16:15 NW 12 G 16 10.00 Partly Cloudy SCT095 66.7 23.5 19% 29.82 0.0
07 15:55 W 13 G 17 10.00 Fair CLR 64.8 23.5 21% 29.82 0.0
07 15:35 NW 10 G 20 10.00 Partly Cloudy SCT095 66.2 23.7 20% 29.84 0.0
07 15:15 Calm 10.00 Partly Cloudy SCT095 62.8 20.7 20% 29.84 0.0
07 14:55 NW 12 10.00 Fair CLR 65.3 24.3 21% 29.85 0.0
07 14:35 W 5 G 20 10.00 Fair CLR 65.5 24.4 21% 29.85 0.0
07 14:15 NW 3 G 21 10.00 Fair CLR 63.9 24.3 22% 29.85 0.0
07 13:55 N 9 G 20 10.00 Partly Cloudy SCT085 64 24.3 22% 29.85 0.0
07 13:35 Calm 10.00 Partly Cloudy SCT085 62.6 25.5 24% 29.85 0.0
07 13:15 NW 14 G 21 10.00 Fair CLR 62.6 25 24% 29.86 0.0
07 12:55 NW 10 G 18 10.00 Fair CLR 61.9 25.3 62.1 43.9 25% 29.86 0.0
07 12:35 NW 14 G 25 10.00 Fair CLR 61.9 26.2 26% 29.87 0.0
07 12:15 W 13 G 20 10.00 Fair CLR 61.7 28 28% 29.87 0.0
07 11:55 NW 7 G 20 10.00 Fair CLR 60.4 25.2 26% 29.87 0.0
07 11:35 W 7 G 21 10.00 Fair CLR 60.1 26.6 28% 29.88 0.0
07 11:15 W 12 G 16 10.00 Fair CLR 59.4 27.1 29% 29.88 0.0
07 10:55 W 12 10.00 Fair CLR 58.1 27.7 31% 29.88 0.0
07 10:35 W 8 10.00 Fair CLR 57.7 28.6 33% 29.88 0.0
07 10:15 W 10 G 16 10.00 Fair CLR 56.8 29.3 35% 29.88 0.0
07 09:55 W 12 G 16 10.00 Fair CLR 55.8 28.9 36% 29.89 0.0
07 09:35 W 12 10.00 Partly Cloudy SCT120 55 29.1 37% 29.89 0.0
07 09:15 W 15 G 18 10.00 Partly Cloudy SCT120 54.1 29.8 39% 29.89 0.0
07 08:55 SW 13 10.00 Fair CLR 54.5 28.4 37% 29.89 0.0
07 08:35 Calm 10.00 Partly Cloudy SCT120 52.5 30.2 43% 29.88 0.0
07 08:15 Calm 10.00 Partly Cloudy SCT120 50 29.1 45% 29.88 0.0
07 07:55 S 3 10.00 Fair CLR 48.6 28.9 47% 29.89 0.0
07 07:35 Calm 10.00 Fair CLR 46.9 27.7 47% 29.89 0.0
07 07:15 S 3 10.00 Partly Cloudy SCT090 44.2 28.2 53% 29.89 0.0
07 06:55 S 8 10.00 Mostly Cloudy BKN090 45.5 26.2 46 37.6 47% 42 29.89 0.0
07 06:35 SW 3 10.00 Overcast OVC090 45.9 25.7 45% 29.89 0.0
07 06:15 Calm 10.00 Overcast SCT080 OVC090 45.5 26.2 47% 29.88 0.0
07 05:55 Calm 10.00 Overcast BKN090 OVC110 44.6 27.1 50% 29.88 0.0
07 05:35 S 12 10.00 Mostly Cloudy BKN100 BKN120 43.7 26.8 51% 38 29.89 0.0
07 05:15 S 9 10.00 Overcast OVC110 43.7 26.2 50% 39 29.89 0.0
07 04:55 S 10 10.00 Overcast OVC110 43.2 26.2 51% 38 29.9 0.0
07 04:35 S 10 10.00 Mostly Cloudy BKN110 41.9 26.4 54% 36 29.9 0.0
07 04:15 S 13 10.00 Overcast OVC100 42.3 26.1 53% 36 29.9 0.0
07 03:55 S 14 10.00 Overcast OVC110 43 25.3 50% 37 29.92 0.0
07 03:35 S 12 10.00 Overcast OVC100 42.3 26.6 54% 36 29.93 0.0
07 03:15 S 9 10.00 Overcast OVC100 42.8 25.7 51% 38 29.94 0.0
Date Time (cdt) Wind (mph) Vis. (mi.) Weather Sky Cond. Air Dwpt Max. Min. Relative Humidity Wind Chill (°F) Heat Index (°F) altimeter (in) sea level (mb) 1 hr 3 hr 6 hr
6 hour
Temperature (ºF) Pressure Precipitation (in)